sensor_id;sensor_type;location;lat;lon;timestamp;pressure;altitude;pressure_sealevel;temperature;humidity
24558;BME280;12726;49.148;8.582;2023-04-06T00:01:54;100702.59;;;0.77;74.65
24558;BME280;12726;49.148;8.582;2023-04-06T00:04:40;100702.72;;;0.75;74.42
24558;BME280;12726;49.148;8.582;2023-04-06T00:07:25;100700.34;;;0.72;74.41
24558;BME280;12726;49.148;8.582;2023-04-06T00:10:12;100699.94;;;0.67;74.35
24558;BME280;12726;49.148;8.582;2023-04-06T00:12:58;100693.09;;;0.65;74.66
24558;BME280;12726;49.148;8.582;2023-04-06T00:15:44;100693.53;;;0.70;74.82
24558;BME280;12726;49.148;8.582;2023-04-06T00:18:29;100683.47;;;0.73;74.90
24558;BME280;12726;49.148;8.582;2023-04-06T00:21:15;100682.50;;;0.74;75.26
24558;BME280;12726;49.148;8.582;2023-04-06T00:24:00;100680.44;;;0.68;75.57
24558;BME280;12726;49.148;8.582;2023-04-06T00:26:47;100684.31;;;0.64;75.98
24558;BME280;12726;49.148;8.582;2023-04-06T00:29:33;100683.66;;;0.62;76.01
24558;BME280;12726;49.148;8.582;2023-04-06T00:32:20;100676.28;;;0.56;76.31
24558;BME280;12726;49.148;8.582;2023-04-06T00:35:06;100673.19;;;0.51;76.02
24558;BME280;12726;49.148;8.582;2023-04-06T00:37:51;100679.75;;;0.47;76.29
24558;BME280;12726;49.148;8.582;2023-04-06T00:40:36;100670.41;;;0.43;76.46
24558;BME280;12726;49.148;8.582;2023-04-06T00:43:23;100665.69;;;0.37;76.99
24558;BME280;12726;49.148;8.582;2023-04-06T00:46:08;100666.66;;;0.36;76.93
24558;BME280;12726;49.148;8.582;2023-04-06T00:48:56;100670.44;;;0.33;77.20
24558;BME280;12726;49.148;8.582;2023-04-06T00:51:41;100675.03;;;0.31;77.28
24558;BME280;12726;49.148;8.582;2023-04-06T00:54:27;100658.59;;;0.28;77.26
24558;BME280;12726;49.148;8.582;2023-04-06T00:57:13;100669.47;;;0.25;77.48
24558;BME280;12726;49.148;8.582;2023-04-06T00:59:58;100666.41;;;0.20;77.33
24558;BME280;12726;49.148;8.582;2023-04-06T01:02:43;100655.38;;;0.15;77.44
24558;BME280;12726;49.148;8.582;2023-04-06T01:05:33;100660.00;;;0.13;77.60
24558;BME280;12726;49.148;8.582;2023-04-06T01:08:18;100650.34;;;0.02;77.61
24558;BME280;12726;49.148;8.582;2023-04-06T01:11:04;100659.56;;;0.08;77.87
24558;BME280;12726;49.148;8.582;2023-04-06T01:13:50;100657.47;;;0.11;77.88
24558;BME280;12726;49.148;8.582;2023-04-06T01:16:35;100655.53;;;0.13;77.70
24558;BME280;12726;49.148;8.582;2023-04-06T01:19:22;100653.84;;;0.12;77.68
24558;BME280;12726;49.148;8.582;2023-04-06T01:22:08;100654.84;;;0.11;78.18
24558;BME280;12726;49.148;8.582;2023-04-06T01:24:55;100653.03;;;0.12;78.19
24558;BME280;12726;49.148;8.582;2023-04-06T01:27:41;100650.81;;;0.07;78.48
24558;BME280;12726;49.148;8.582;2023-04-06T01:30:26;100651.19;;;0.03;78.65
24558;BME280;12726;49.148;8.582;2023-04-06T01:33:11;100642.97;;;-0.04;78.73
24558;BME280;12726;49.148;8.582;2023-04-06T01:35:57;100645.47;;;-0.12;79.14
24558;BME280;12726;49.148;8.582;2023-04-06T01:38:43;100640.75;;;-0.18;79.28
24558;BME280;12726;49.148;8.582;2023-04-06T01:41:29;100645.19;;;-0.19;80.40
24558;BME280;12726;49.148;8.582;2023-04-06T01:44:16;100642.00;;;-0.22;80.58
24558;BME280;12726;49.148;8.582;2023-04-06T01:47:01;100645.50;;;-0.22;81.24
24558;BME280;12726;49.148;8.582;2023-04-06T01:49:47;100638.66;;;-0.24;81.35
24558;BME280;12726;49.148;8.582;2023-04-06T01:52:32;100637.09;;;-0.27;81.74
24558;BME280;12726;49.148;8.582;2023-04-06T01:55:18;100629.31;;;-0.28;81.88
24558;BME280;12726;49.148;8.582;2023-04-06T01:58:05;100638.50;;;-0.32;81.75
24558;BME280;12726;49.148;8.582;2023-04-06T02:00:50;100642.09;;;-0.33;82.13
24558;BME280;12726;49.148;8.582;2023-04-06T02:03:35;100646.69;;;-0.35;81.96
24558;BME280;12726;49.148;8.582;2023-04-06T02:06:21;100645.03;;;-0.36;82.00
24558;BME280;12726;49.148;8.582;2023-04-06T02:09:06;100636.41;;;-0.38;82.35
24558;BME280;12726;49.148;8.582;2023-04-06T02:11:51;100640.16;;;-0.41;82.15
24558;BME280;12726;49.148;8.582;2023-04-06T02:14:38;100643.75;;;-0.42;82.08
24558;BME280;12726;49.148;8.582;2023-04-06T02:17:24;100638.22;;;-0.39;81.87
24558;BME280;12726;49.148;8.582;2023-04-06T02:20:10;100634.59;;;-0.38;81.35
24558;BME280;12726;49.148;8.582;2023-04-06T02:22:56;100636.53;;;-0.40;80.91
24558;BME280;12726;49.148;8.582;2023-04-06T02:25:41;100642.78;;;-0.41;81.07
24558;BME280;12726;49.148;8.582;2023-04-06T02:28:27;100640.28;;;-0.43;80.99
24558;BME280;12726;49.148;8.582;2023-04-06T02:31:14;100639.47;;;-0.43;81.02
24558;BME280;12726;49.148;8.582;2023-04-06T02:34:00;100631.09;;;-0.48;80.91
24558;BME280;12726;49.148;8.582;2023-04-06T02:36:46;100635.28;;;-0.46;80.66
24558;BME280;12726;49.148;8.582;2023-04-06T02:39:31;100627.47;;;-0.47;80.87
24558;BME280;12726;49.148;8.582;2023-04-06T02:42:17;100633.47;;;-0.45;80.84
24558;BME280;12726;49.148;8.582;2023-04-06T02:45:03;100634.19;;;-0.43;80.77
24558;BME280;12726;49.148;8.582;2023-04-06T02:47:50;100624.69;;;-0.46;80.49
24558;BME280;12726;49.148;8.582;2023-04-06T02:50:35;100614.53;;;-0.41;81.19
24558;BME280;12726;49.148;8.582;2023-04-06T02:53:21;100610.78;;;-0.38;80.79
24558;BME280;12726;49.148;8.582;2023-04-06T02:56:06;100615.25;;;-0.38;80.43
24558;BME280;12726;49.148;8.582;2023-04-06T02:58:52;100618.00;;;-0.40;80.32
24558;BME280;12726;49.148;8.582;2023-04-06T03:01:37;100621.63;;;-0.41;80.21
24558;BME280;12726;49.148;8.582;2023-04-06T03:04:24;100624.41;;;-0.43;80.20
24558;BME280;12726;49.148;8.582;2023-04-06T03:07:09;100618.56;;;-0.46;80.27
24558;BME280;12726;49.148;8.582;2023-04-06T03:09:55;100626.63;;;-0.48;80.68
24558;BME280;12726;49.148;8.582;2023-04-06T03:12:40;100622.19;;;-0.47;80.57
24558;BME280;12726;49.148;8.582;2023-04-06T03:15:26;100627.47;;;-0.47;80.57
24558;BME280;12726;49.148;8.582;2023-04-06T03:18:12;100619.97;;;-0.52;80.67
24558;BME280;12726;49.148;8.582;2023-04-06T03:20:58;100620.22;;;-0.55;80.59
24558;BME280;12726;49.148;8.582;2023-04-06T03:23:45;100624.78;;;-0.57;80.51
24558;BME280;12726;49.148;8.582;2023-04-06T03:26:30;100619.78;;;-0.60;80.24
24558;BME280;12726;49.148;8.582;2023-04-06T03:29:16;100623.53;;;-0.62;80.59
24558;BME280;12726;49.148;8.582;2023-04-06T03:32:01;100622.03;;;-0.65;80.90
24558;BME280;12726;49.148;8.582;2023-04-06T03:34:47;100629.78;;;-0.63;80.87
24558;BME280;12726;49.148;8.582;2023-04-06T03:37:33;100631.91;;;-0.57;81.04
24558;BME280;12726;49.148;8.582;2023-04-06T03:40:19;100628.97;;;-0.54;80.98
24558;BME280;12726;49.148;8.582;2023-04-06T03:43:05;100632.47;;;-0.54;81.72
24558;BME280;12726;49.148;8.582;2023-04-06T03:45:50;100629.81;;;-0.54;81.08
24558;BME280;12726;49.148;8.582;2023-04-06T03:48:35;100639.28;;;-0.61;80.91
24558;BME280;12726;49.148;8.582;2023-04-06T03:51:21;100636.22;;;-0.66;81.02
24558;BME280;12726;49.148;8.582;2023-04-06T03:54:08;100635.06;;;-0.73;80.95
24558;BME280;12726;49.148;8.582;2023-04-06T03:56:53;100644.22;;;-0.77;81.38
24558;BME280;12726;49.148;8.582;2023-04-06T03:59:39;100638.25;;;-0.79;81.17
24558;BME280;12726;49.148;8.582;2023-04-06T04:02:24;100638.38;;;-0.81;81.37
24558;BME280;12726;49.148;8.582;2023-04-06T04:05:10;100641.88;;;-0.80;81.44
24558;BME280;12726;49.148;8.582;2023-04-06T04:07:55;100634.91;;;-0.81;81.54
24558;BME280;12726;49.148;8.582;2023-04-06T04:10:42;100638.63;;;-0.84;81.48
24558;BME280;12726;49.148;8.582;2023-04-06T04:13:27;100643.25;;;-0.86;81.58
24558;BME280;12726;49.148;8.582;2023-04-06T04:16:12;100647.94;;;-0.89;81.61
24558;BME280;12726;49.148;8.582;2023-04-06T04:18:58;100639.97;;;-0.99;81.68
24558;BME280;12726;49.148;8.582;2023-04-06T04:21:44;100654.47;;;-0.93;81.94
24558;BME280;12726;49.148;8.582;2023-04-06T04:24:30;100653.63;;;-0.94;82.23
24558;BME280;12726;49.148;8.582;2023-04-06T04:27:17;100655.31;;;-0.93;82.68
24558;BME280;12726;49.148;8.582;2023-04-06T04:30:02;100652.50;;;-0.91;82.99
24558;BME280;12726;49.148;8.582;2023-04-06T04:32:48;100659.34;;;-0.89;82.73
24558;BME280;12726;49.148;8.582;2023-04-06T04:35:33;100665.72;;;-0.91;82.12
24558;BME280;12726;49.148;8.582;2023-04-06T04:38:19;100663.25;;;-0.93;82.31
24558;BME280;12726;49.148;8.582;2023-04-06T04:41:04;100659.16;;;-0.97;82.28
24558;BME280;12726;49.148;8.582;2023-04-06T04:43:51;100661.09;;;-0.99;82.64
24558;BME280;12726;49.148;8.582;2023-04-06T04:46:36;100664.75;;;-1.00;83.00
24558;BME280;12726;49.148;8.582;2023-04-06T04:49:22;100667.50;;;-1.01;83.00
24558;BME280;12726;49.148;8.582;2023-04-06T04:52:08;100666.78;;;-1.03;83.04
24558;BME280;12726;49.148;8.582;2023-04-06T04:54:53;100670.41;;;-1.04;82.93
24558;BME280;12726;49.148;8.582;2023-04-06T04:57:38;100678.59;;;-1.07;82.83
24558;BME280;12726;49.148;8.582;2023-04-06T05:00:25;100674.00;;;-1.05;83.39
24558;BME280;12726;49.148;8.582;2023-04-06T05:03:16;100671.38;;;-1.05;83.78
24558;BME280;12726;49.148;8.582;2023-04-06T05:06:04;100676.53;;;-1.04;83.87
24558;BME280;12726;49.148;8.582;2023-04-06T05:08:49;100678.06;;;-1.01;83.74
24558;BME280;12726;49.148;8.582;2023-04-06T05:11:35;100684.88;;;-0.99;84.15
24558;BME280;12726;49.148;8.582;2023-04-06T05:14:20;100679.34;;;-0.96;84.28
24558;BME280;12726;49.148;8.582;2023-04-06T05:17:07;100684.50;;;-0.94;84.25
24558;BME280;12726;49.148;8.582;2023-04-06T05:19:53;100686.44;;;-0.96;84.80
24558;BME280;12726;49.148;8.582;2023-04-06T05:22:38;100691.00;;;-0.98;84.96
24558;BME280;12726;49.148;8.582;2023-04-06T05:25:24;100693.66;;;-0.98;85.20
24558;BME280;12726;49.148;8.582;2023-04-06T05:28:09;100695.19;;;-0.96;85.38
24558;BME280;12726;49.148;8.582;2023-04-06T05:30:58;100695.63;;;-0.91;85.74
24558;BME280;12726;49.148;8.582;2023-04-06T05:33:45;100694.13;;;-0.84;86.18
24558;BME280;12726;49.148;8.582;2023-04-06T05:36:30;100704.06;;;-0.76;86.13
24558;BME280;12726;49.148;8.582;2023-04-06T05:39:16;100701.59;;;-0.68;85.90
24558;BME280;12726;49.148;8.582;2023-04-06T05:42:04;100705.78;;;-0.56;86.17
24558;BME280;12726;49.148;8.582;2023-04-06T05:44:49;100704.03;;;-0.46;85.86
24558;BME280;12726;49.148;8.582;2023-04-06T05:47:35;100704.63;;;-0.32;84.87
24558;BME280;12726;49.148;8.582;2023-04-06T05:50:21;100702.97;;;-0.24;84.05
24558;BME280;12726;49.148;8.582;2023-04-06T05:53:07;100709.78;;;-0.21;84.21
24558;BME280;12726;49.148;8.582;2023-04-06T05:55:53;100716.94;;;-0.12;84.00
24558;BME280;12726;49.148;8.582;2023-04-06T05:58:38;100715.69;;;0.02;84.11
24558;BME280;12726;49.148;8.582;2023-04-06T06:01:24;100711.41;;;0.20;83.35
24558;BME280;12726;49.148;8.582;2023-04-06T06:04:09;100723.53;;;0.42;82.64
24558;BME280;12726;49.148;8.582;2023-04-06T06:06:56;100712.66;;;0.54;82.03
24558;BME280;12726;49.148;8.582;2023-04-06T06:09:41;100715.28;;;0.73;82.25
24558;BME280;12726;49.148;8.582;2023-04-06T06:12:27;100707.56;;;0.99;82.06
24558;BME280;12726;49.148;8.582;2023-04-06T06:15:12;100703.69;;;1.31;81.07
24558;BME280;12726;49.148;8.582;2023-04-06T06:17:58;100706.34;;;1.58;79.01
24558;BME280;12726;49.148;8.582;2023-04-06T06:20:43;100707.06;;;1.78;78.00
24558;BME280;12726;49.148;8.582;2023-04-06T06:23:30;100712.81;;;2.01;77.18
24558;BME280;12726;49.148;8.582;2023-04-06T06:26:15;100707.66;;;2.34;74.27
24558;BME280;12726;49.148;8.582;2023-04-06T06:29:01;100715.63;;;2.70;73.24
24558;BME280;12726;49.148;8.582;2023-04-06T06:31:46;100708.31;;;2.90;71.33
24558;BME280;12726;49.148;8.582;2023-04-06T06:34:31;100704.50;;;3.18;69.50
24558;BME280;12726;49.148;8.582;2023-04-06T06:37:17;100704.19;;;3.55;67.98
24558;BME280;12726;49.148;8.582;2023-04-06T06:40:05;100701.94;;;3.84;68.61
24558;BME280;12726;49.148;8.582;2023-04-06T06:42:51;100695.06;;;4.24;67.23
24558;BME280;12726;49.148;8.582;2023-04-06T06:45:36;100700.88;;;4.84;65.96
24558;BME280;12726;49.148;8.582;2023-04-06T06:48:21;100704.09;;;5.51;62.55
24558;BME280;12726;49.148;8.582;2023-04-06T06:51:07;100704.41;;;6.26;60.06
24558;BME280;12726;49.148;8.582;2023-04-06T06:53:53;100698.72;;;6.52;56.64
24558;BME280;12726;49.148;8.582;2023-04-06T06:56:40;100699.13;;;7.01;52.61
24558;BME280;12726;49.148;8.582;2023-04-06T06:59:25;100692.22;;;7.21;53.27
24558;BME280;12726;49.148;8.582;2023-04-06T07:02:11;100690.91;;;7.61;52.05
24558;BME280;12726;49.148;8.582;2023-04-06T07:04:56;100701.38;;;7.41;51.68
24558;BME280;12726;49.148;8.582;2023-04-06T07:07:41;100691.94;;;7.60;50.07
24558;BME280;12726;49.148;8.582;2023-04-06T07:10:27;100696.75;;;8.15;48.73
24558;BME280;12726;49.148;8.582;2023-04-06T07:13:14;100696.47;;;8.46;47.95
24558;BME280;12726;49.148;8.582;2023-04-06T07:16:03;100686.50;;;8.89;47.05
24558;BME280;12726;49.148;8.582;2023-04-06T07:18:48;100689.16;;;9.11;47.26
24558;BME280;12726;49.148;8.582;2023-04-06T07:21:34;100689.88;;;9.26;46.64
24558;BME280;12726;49.148;8.582;2023-04-06T07:24:19;100696.59;;;9.09;46.27
24558;BME280;12726;49.148;8.582;2023-04-06T07:27:04;100690.81;;;9.46;44.90
24558;BME280;12726;49.148;8.582;2023-04-06T07:29:51;100680.84;;;9.74;43.82
24558;BME280;12726;49.148;8.582;2023-04-06T07:32:36;100695.25;;;9.60;45.00
24558;BME280;12726;49.148;8.582;2023-04-06T07:35:22;100688.44;;;9.58;44.61
24558;BME280;12726;49.148;8.582;2023-04-06T07:38:08;100694.38;;;9.94;44.08
24558;BME280;12726;49.148;8.582;2023-04-06T07:40:54;100688.13;;;10.48;43.07
24558;BME280;12726;49.148;8.582;2023-04-06T07:43:39;100692.09;;;10.65;42.25
24558;BME280;12726;49.148;8.582;2023-04-06T07:46:26;100684.81;;;10.52;42.13
24558;BME280;12726;49.148;8.582;2023-04-06T07:49:11;100690.63;;;11.15;43.33
24558;BME280;12726;49.148;8.582;2023-04-06T07:51:57;100685.75;;;11.63;41.17
24558;BME280;12726;49.148;8.582;2023-04-06T07:54:42;100686.50;;;11.90;39.02
24558;BME280;12726;49.148;8.582;2023-04-06T07:57:28;100693.59;;;12.23;38.72
24558;BME280;12726;49.148;8.582;2023-04-06T08:00:14;100687.41;;;12.53;38.53
24558;BME280;12726;49.148;8.582;2023-04-06T08:03:01;100681.91;;;13.16;38.11
24558;BME280;12726;49.148;8.582;2023-04-06T08:05:46;100685.09;;;13.13;36.28
24558;BME280;12726;49.148;8.582;2023-04-06T08:08:32;100682.84;;;13.04;37.67
24558;BME280;12726;49.148;8.582;2023-04-06T08:11:17;100690.13;;;13.64;36.41
24558;BME280;12726;49.148;8.582;2023-04-06T08:14:03;100684.28;;;13.86;36.10
24558;BME280;12726;49.148;8.582;2023-04-06T08:16:55;100682.41;;;14.16;35.43
24558;BME280;12726;49.148;8.582;2023-04-06T08:19:43;100693.91;;;14.60;36.24
24558;BME280;12726;49.148;8.582;2023-04-06T08:22:28;100679.97;;;14.44;36.62
24558;BME280;12726;49.148;8.582;2023-04-06T08:25:14;100686.31;;;15.03;35.05
24558;BME280;12726;49.148;8.582;2023-04-06T08:27:59;100679.47;;;14.89;36.41
24558;BME280;12726;49.148;8.582;2023-04-06T08:30:45;100686.22;;;14.57;35.43
24558;BME280;12726;49.148;8.582;2023-04-06T08:33:31;100683.03;;;14.89;34.09
24558;BME280;12726;49.148;8.582;2023-04-06T08:36:20;100679.00;;;15.15;36.03
24558;BME280;12726;49.148;8.582;2023-04-06T08:39:06;100689.41;;;15.30;35.58
24558;BME280;12726;49.148;8.582;2023-04-06T08:41:52;100690.78;;;15.79;35.08
24558;BME280;12726;49.148;8.582;2023-04-06T08:44:41;100689.25;;;15.72;32.73
24558;BME280;12726;49.148;8.582;2023-04-06T08:47:27;100689.34;;;15.88;32.84
24558;BME280;12726;49.148;8.582;2023-04-06T08:50:13;100683.31;;;15.98;32.96
24558;BME280;12726;49.148;8.582;2023-04-06T08:53:00;100688.59;;;16.04;34.37
24558;BME280;12726;49.148;8.582;2023-04-06T08:55:46;100683.56;;;16.13;34.31
24558;BME280;12726;49.148;8.582;2023-04-06T08:58:34;100681.22;;;16.45;34.07
24558;BME280;12726;49.148;8.582;2023-04-06T09:01:21;100685.72;;;16.39;31.44
24558;BME280;12726;49.148;8.582;2023-04-06T09:04:08;100682.66;;;16.36;34.61
24558;BME280;12726;49.148;8.582;2023-04-06T09:06:54;100676.97;;;15.81;32.71
24558;BME280;12726;49.148;8.582;2023-04-06T09:09:42;100668.59;;;16.67;33.02
24558;BME280;12726;49.148;8.582;2023-04-06T09:12:32;100667.03;;;16.88;31.48
24558;BME280;12726;49.148;8.582;2023-04-06T09:15:19;100676.31;;;17.26;31.32
24558;BME280;12726;49.148;8.582;2023-04-06T09:18:05;100667.41;;;17.13;31.75
24558;BME280;12726;49.148;8.582;2023-04-06T09:20:57;100674.25;;;16.99;31.95
24558;BME280;12726;49.148;8.582;2023-04-06T09:23:42;100672.16;;;16.56;33.00
24558;BME280;12726;49.148;8.582;2023-04-06T09:26:29;100666.50;;;17.08;31.82
24558;BME280;12726;49.148;8.582;2023-04-06T09:29:24;100670.06;;;17.08;33.60
24558;BME280;12726;49.148;8.582;2023-04-06T09:32:11;100661.63;;;17.27;33.91
24558;BME280;12726;49.148;8.582;2023-04-06T09:35:07;100665.13;;;17.82;32.31
24558;BME280;12726;49.148;8.582;2023-04-06T09:37:52;100667.09;;;17.48;29.49
24558;BME280;12726;49.148;8.582;2023-04-06T09:40:48;100657.03;;;16.60;32.28
24558;BME280;12726;49.148;8.582;2023-04-06T09:43:35;100659.19;;;16.92;32.18
24558;BME280;12726;49.148;8.582;2023-04-06T09:46:21;100654.78;;;16.57;33.84
24558;BME280;12726;49.148;8.582;2023-04-06T09:49:08;100654.66;;;16.97;32.51
24558;BME280;12726;49.148;8.582;2023-04-06T09:51:57;100651.78;;;17.42;29.88
24558;BME280;12726;49.148;8.582;2023-04-06T09:54:44;100647.75;;;16.90;30.45
24558;BME280;12726;49.148;8.582;2023-04-06T09:57:37;100649.09;;;16.59;32.50
24558;BME280;12726;49.148;8.582;2023-04-06T10:00:25;100653.44;;;16.88;33.01
24558;BME280;12726;49.148;8.582;2023-04-06T10:03:21;100652.19;;;16.79;30.80
24558;BME280;12726;49.148;8.582;2023-04-06T10:06:14;100654.84;;;16.45;31.53
24558;BME280;12726;49.148;8.582;2023-04-06T10:09:02;100637.09;;;16.88;32.77
24558;BME280;12726;49.148;8.582;2023-04-06T10:11:47;100646.72;;;17.12;31.92
24558;BME280;12726;49.148;8.582;2023-04-06T10:14:34;100645.91;;;16.95;31.66
24558;BME280;12726;49.148;8.582;2023-04-06T10:17:22;100640.44;;;17.67;31.23
24558;BME280;12726;49.148;8.582;2023-04-06T10:20:11;100645.03;;;18.10;29.59
24558;BME280;12726;49.148;8.582;2023-04-06T10:23:04;100636.94;;;18.20;27.23
24558;BME280;12726;49.148;8.582;2023-04-06T10:25:54;100635.28;;;18.19;29.81
24558;BME280;12726;49.148;8.582;2023-04-06T10:28:41;100629.50;;;18.37;27.75
24558;BME280;12726;49.148;8.582;2023-04-06T10:31:28;100636.06;;;17.66;30.19
24558;BME280;12726;49.148;8.582;2023-04-06T10:34:14;100627.19;;;17.15;27.65
24558;BME280;12726;49.148;8.582;2023-04-06T10:37:10;100636.47;;;16.36;28.83
24558;BME280;12726;49.148;8.582;2023-04-06T10:39:55;100627.72;;;16.17;29.50
24558;BME280;12726;49.148;8.582;2023-04-06T10:42:42;100619.50;;;16.29;31.32
24558;BME280;12726;49.148;8.582;2023-04-06T10:45:31;100614.81;;;16.69;31.23
24558;BME280;12726;49.148;8.582;2023-04-06T10:48:17;100620.09;;;17.14;30.29
24558;BME280;12726;49.148;8.582;2023-04-06T10:51:09;100611.38;;;17.56;29.56
24558;BME280;12726;49.148;8.582;2023-04-06T10:53:55;100615.47;;;17.53;29.22
24558;BME280;12726;49.148;8.582;2023-04-06T10:56:41;100616.31;;;17.37;29.71
24558;BME280;12726;49.148;8.582;2023-04-06T10:59:28;100600.50;;;17.34;30.14
24558;BME280;12726;49.148;8.582;2023-04-06T11:02:20;100604.41;;;16.83;29.72
24558;BME280;12726;49.148;8.582;2023-04-06T11:05:07;100601.63;;;16.61;28.02
24558;BME280;12726;49.148;8.582;2023-04-06T11:07:54;100598.16;;;16.66;28.66
24558;BME280;12726;49.148;8.582;2023-04-06T11:10:39;100597.78;;;16.45;27.47
24558;BME280;12726;49.148;8.582;2023-04-06T11:13:24;100595.72;;;16.53;32.07
24558;BME280;12726;49.148;8.582;2023-04-06T11:16:14;100596.50;;;16.81;29.89
24558;BME280;12726;49.148;8.582;2023-04-06T11:19:00;100594.66;;;16.87;27.81
24558;BME280;12726;49.148;8.582;2023-04-06T11:21:47;100593.34;;;16.39;28.81
24558;BME280;12726;49.148;8.582;2023-04-06T11:24:35;100581.63;;;16.22;29.66
24558;BME280;12726;49.148;8.582;2023-04-06T11:27:21;100582.13;;;16.53;28.46
24558;BME280;12726;49.148;8.582;2023-04-06T11:30:07;100584.63;;;16.71;29.73
24558;BME280;12726;49.148;8.582;2023-04-06T11:33:00;100578.34;;;16.87;28.92
24558;BME280;12726;49.148;8.582;2023-04-06T11:35:46;100574.44;;;16.16;29.82
24558;BME280;12726;49.148;8.582;2023-04-06T11:38:31;100579.91;;;16.33;31.69
24558;BME280;12726;49.148;8.582;2023-04-06T11:41:18;100564.28;;;16.90;31.93
24558;BME280;12726;49.148;8.582;2023-04-06T11:44:05;100563.03;;;16.98;29.75
24558;BME280;12726;49.148;8.582;2023-04-06T11:46:54;100556.19;;;17.17;28.68
24558;BME280;12726;49.148;8.582;2023-04-06T11:49:43;100555.81;;;17.52;28.68
24558;BME280;12726;49.148;8.582;2023-04-06T11:52:29;100551.50;;;17.34;28.64
24558;BME280;12726;49.148;8.582;2023-04-06T11:55:16;100544.75;;;16.76;28.53
24558;BME280;12726;49.148;8.582;2023-04-06T11:58:04;100545.25;;;16.40;26.85
24558;BME280;12726;49.148;8.582;2023-04-06T12:00:49;100544.41;;;16.23;29.48
24558;BME280;12726;49.148;8.582;2023-04-06T12:03:35;100545.81;;;16.25;29.45
24558;BME280;12726;49.148;8.582;2023-04-06T12:06:20;100544.84;;;16.65;27.16
24558;BME280;12726;49.148;8.582;2023-04-06T12:09:05;100532.69;;;16.89;28.67
24558;BME280;12726;49.148;8.582;2023-04-06T12:11:51;100544.50;;;17.16;27.01
24558;BME280;12726;49.148;8.582;2023-04-06T12:14:38;100535.88;;;16.64;27.77
24558;BME280;12726;49.148;8.582;2023-04-06T12:17:23;100540.78;;;16.51;26.83
24558;BME280;12726;49.148;8.582;2023-04-06T12:20:10;100539.25;;;16.55;28.39
24558;BME280;12726;49.148;8.582;2023-04-06T12:22:55;100534.53;;;16.83;27.42
24558;BME280;12726;49.148;8.582;2023-04-06T12:25:42;100527.94;;;16.79;26.46
24558;BME280;12726;49.148;8.582;2023-04-06T12:28:27;100531.47;;;16.80;28.57
24558;BME280;12726;49.148;8.582;2023-04-06T12:31:17;100523.28;;;16.97;28.73
24558;BME280;12726;49.148;8.582;2023-04-06T12:34:03;100520.78;;;17.12;26.49
24558;BME280;12726;49.148;8.582;2023-04-06T12:36:49;100512.03;;;16.71;26.92
24558;BME280;12726;49.148;8.582;2023-04-06T12:39:34;100515.75;;;16.15;28.50
24558;BME280;12726;49.148;8.582;2023-04-06T12:42:20;100518.72;;;16.14;29.13
24558;BME280;12726;49.148;8.582;2023-04-06T12:45:06;100517.59;;;16.26;28.05
24558;BME280;12726;49.148;8.582;2023-04-06T12:47:53;100516.84;;;16.64;28.67
24558;BME280;12726;49.148;8.582;2023-04-06T12:50:38;100517.06;;;16.63;26.11
24558;BME280;12726;49.148;8.582;2023-04-06T12:53:24;100512.59;;;16.57;26.92
24558;BME280;12726;49.148;8.582;2023-04-06T12:56:12;100515.44;;;16.45;27.95
24558;BME280;12726;49.148;8.582;2023-04-06T12:58:58;100518.81;;;16.35;25.95
24558;BME280;12726;49.148;8.582;2023-04-06T13:01:44;100503.06;;;16.54;27.60
24558;BME280;12726;49.148;8.582;2023-04-06T13:04:31;100498.06;;;16.46;27.08
24558;BME280;12726;49.148;8.582;2023-04-06T13:07:17;100512.38;;;16.58;27.60
24558;BME280;12726;49.148;8.582;2023-04-06T13:10:04;100497.72;;;16.42;26.25
24558;BME280;12726;49.148;8.582;2023-04-06T13:12:49;100505.81;;;16.04;26.67
24558;BME280;12726;49.148;8.582;2023-04-06T13:15:35;100512.28;;;15.58;26.69
24558;BME280;12726;49.148;8.582;2023-04-06T13:18:20;100507.88;;;15.40;26.68
24558;BME280;12726;49.148;8.582;2023-04-06T13:21:08;100500.41;;;15.47;27.51
24558;BME280;12726;49.148;8.582;2023-04-06T13:23:53;100494.16;;;15.75;27.72
24558;BME280;12726;49.148;8.582;2023-04-06T13:26:39;100501.88;;;15.66;26.80
24558;BME280;12726;49.148;8.582;2023-04-06T13:29:24;100490.03;;;15.44;27.96
24558;BME280;12726;49.148;8.582;2023-04-06T13:32:10;100487.16;;;15.51;28.35
24558;BME280;12726;49.148;8.582;2023-04-06T13:34:55;100496.72;;;15.25;28.54
24558;BME280;12726;49.148;8.582;2023-04-06T13:37:42;100488.50;;;15.08;28.73
24558;BME280;12726;49.148;8.582;2023-04-06T13:40:27;100489.88;;;15.22;27.82
24558;BME280;12726;49.148;8.582;2023-04-06T13:43:13;100480.72;;;15.12;30.19
24558;BME280;12726;49.148;8.582;2023-04-06T13:45:59;100484.25;;;15.12;28.77
24558;BME280;12726;49.148;8.582;2023-04-06T13:48:45;100482.25;;;15.08;28.71
24558;BME280;12726;49.148;8.582;2023-04-06T13:51:31;100475.03;;;15.13;30.05
24558;BME280;12726;49.148;8.582;2023-04-06T13:54:17;100479.38;;;15.26;27.64
24558;BME280;12726;49.148;8.582;2023-04-06T13:57:03;100471.63;;;15.18;27.52
24558;BME280;12726;49.148;8.582;2023-04-06T13:59:49;100479.66;;;15.13;28.99
24558;BME280;12726;49.148;8.582;2023-04-06T14:02:34;100484.31;;;14.66;28.24
24558;BME280;12726;49.148;8.582;2023-04-06T14:05:20;100472.81;;;14.70;29.01
24558;BME280;12726;49.148;8.582;2023-04-06T14:08:06;100473.72;;;14.64;29.38
24558;BME280;12726;49.148;8.582;2023-04-06T14:10:52;100473.03;;;14.69;27.89
24558;BME280;12726;49.148;8.582;2023-04-06T14:13:39;100468.44;;;14.69;27.96
24558;BME280;12726;49.148;8.582;2023-04-06T14:16:25;100477.50;;;14.75;29.97
24558;BME280;12726;49.148;8.582;2023-04-06T14:19:11;100475.94;;;14.91;28.05
24558;BME280;12726;49.148;8.582;2023-04-06T14:21:57;100475.56;;;14.87;29.86
24558;BME280;12726;49.148;8.582;2023-04-06T14:24:42;100471.00;;;14.76;28.90
24558;BME280;12726;49.148;8.582;2023-04-06T14:27:29;100462.25;;;14.85;28.10
24558;BME280;12726;49.148;8.582;2023-04-06T14:30:15;100461.19;;;14.86;29.04
24558;BME280;12726;49.148;8.582;2023-04-06T14:33:00;100464.97;;;14.85;28.20